Date,TemperatureHighF,TemperatureAvgF,TemperatureLowF,DewpointHighF,DewpointAvgF,DewpointLowF,HumidityHigh,HumidityAvg,HumidityLow,PressureMaxIn,PressureMinIn,WindSpeedMaxMPH,WindSpeedAvgMPH,GustSpeedMaxMPH,PrecipitationSumIn
2013-2-1,36.5,13.5,4.5,12.0,4.5,-1.0,80,70,36,30.63,30.34,0,0,0,0.00
2013-2-2,36.6,28.9,17.0,11.0,7.8,4.0,67,44,27,30.82,30.57,2,0,0,0.00
2013-2-3,38.2,23.7,9.0,21.0,10.8,2.0,75,60,27,30.63,30.16,5,0,0,0.00
2013-2-4,39.2,23.6,7.2,15.0,8.2,-1.0,71,54,26,30.47,30.09,9,0,0,0.00
2013-2-5,41.2,24.3,10.9,14.0,7.8,2.0,71,52,26,30.48,30.11,7,0,0,0.00
2013-2-6,40.5,24.9,10.9,23.0,13.4,5.0,79,64,33,30.31,29.96,4,0,0,0.00
2013-2-7,21.6,15.1,10.7,14.0,8.3,3.0,79,74,70,30.43,30.09,6,1,0,0.00
2013-2-8,34.3,30.9,28.8,21.0,11.2,-99.9,71,56,38,30.11,29.73,14,2,0,0.00
2013-2-9,32.7,22.4,12.8,19.0,11.8,3.0,85,65,41,29.92,29.58,9,2,0,0.04
2013-2-10,24.5,13.3,0.7,12.0,3.8,-5.0,79,67,44,30.31,29.90,11,1,0,0.00
2013-2-11,22.4,14.9,0.9,12.0,5.3,-7.0,81,67,45,30.40,30.10,12,2,0,0.10
2013-2-12,31.0,8.2,-8.9,3.0,-7.0,-16.0,71,54,19,30.72,30.34,4,0,0,0.00
2013-2-16,45.2,32.4,17.8,10.0,4.4,-1.0,49,33,15,30.59,30.28,5,0,0,0.00
2013-2-17,42.9,22.8,4.7,5.0,-1.0,-11.0,65,40,10,30.42,29.82,15,2,0,0.00
2013-2-18,35.3,19.1,9.7,4.0,-3.1,-18.0,69,42,11,30.36,29.78,7,1,0,0.00
2013-2-19,32.5,14.9,-3.1,4.0,-3.5,-13.0,64,47,25,30.57,29.94,5,0,0,0.00
2013-2-20,17.7,15.4,12.8,6.0,-21.5,-99.9,73,46,56,29.93,29.58,5,1,0,0.00
2013-2-21,31.8,17.4,6.0,15.0,6.8,-1.0,79,65,37,30.11,29.78,6,1,0,0.00
2013-2-22,25.0,13.0,2.0,14.0,5.1,-4.0,84,71,48,30.39,30.00,9,0,0,0.10
2013-2-23,28.1,11.8,-5.4,16.0,2.1,-13.0,84,67,45,30.53,29.82,5,0,0,0.02
2013-2-24,26.6,17.3,3.7,15.0,3.0,-7.0,85,56,26,30.30,29.76,5,0,0,0.00
2013-2-25,39.5,17.6,-0.4,6.0,-3.3,-11.0,73,46,12,30.44,29.98,11,1,0,0.00
2013-2-26,26.6,16.1,4.1,9.0,-0.6,-7.0,77,50,25,30.42,29.91,13,1,0,0.00
2013-2-27,30.4,11.5,-5.2,1.0,-6.5,-14.0,66,48,20,30.77,30.40,4,0,0,0.00
2013-2-28,36.5,18.9,-1.8,5.0,-3.6,-12.0,64,41,17,30.87,30.45,7,1,0,0.00